Time;durP1;ratioP1;P1;durP2;ratioP2;P2;SDS_P1;SDS_P2;PMS_P1;PMS_P2;Temp;Humidity;BMP_temperature;BMP_pressure;BME280_temperature;BME280_humidity;BME280_pressure;Samples;Min_cycle;Max_cycle;Signal;HPM_P1;HPM_P2
2024/01/16 00:01:34;;;;;;;3.53;3.33;;;;;;;4.87;100.00;94156.63;5134399;27;20441;-54
2024/01/16 00:04:02;;;;;;;2.60;2.40;;;;;;;4.84;100.00;94144.00;5134347;27;20430;-54
2024/01/16 00:06:31;;;;;;;6.27;2.53;;;;;;;5.06;100.00;94104.34;5134357;27;20461;-54
2024/01/16 00:09:00;;;;;;;3.67;2.17;;;;;;;5.02;100.00;94140.88;5133950;27;20442;-54
2024/01/16 00:11:30;;;;;;;4.53;2.73;;;;;;;5.12;100.00;94167.13;5134957;27;20439;-55
2024/01/16 00:13:58;;;;;;;3.87;2.00;;;;;;;4.87;100.00;94137.44;5134963;27;20526;-54
2024/01/16 00:16:27;;;;;;;2.50;2.40;;;;;;;4.93;100.00;94154.78;5134489;27;20435;-54
2024/01/16 00:18:56;;;;;;;9.13;3.40;;;;;;;4.87;100.00;94159.25;5134281;27;20946;-54
2024/01/16 00:21:24;;;;;;;1.00;0.90;;;;;;;4.89;100.00;94156.34;5134112;27;20434;-54
2024/01/16 00:23:53;;;;;;;7.77;2.70;;;;;;;4.00;100.00;94163.78;5135020;27;21028;-54
2024/01/16 00:26:22;;;;;;;11.67;4.87;;;;;;;3.92;100.00;94164.25;5133224;27;20434;-53
2024/01/16 00:28:52;;;;;;;3.77;3.57;;;;;;;4.48;100.00;94184.34;5134139;27;20459;-54
2024/01/16 00:31:21;;;;;;;4.00;2.43;;;;;;;4.55;100.00;94166.56;5134323;27;20503;-54
2024/01/16 00:33:49;;;;;;;5.63;5.00;;;;;;;4.36;100.00;94157.56;5134875;27;20521;-54
2024/01/16 00:36:18;;;;;;;6.27;3.07;;;;;;;4.58;100.00;94181.75;5134010;27;20438;-53
2024/01/16 00:38:47;;;;;;;3.50;3.30;;;;;;;4.38;100.00;94166.75;5133952;27;21207;-54
2024/01/16 00:41:16;;;;;;;7.40;3.80;;;;;;;4.57;100.00;94138.22;5133437;27;20427;-54
2024/01/16 00:43:45;;;;;;;8.17;1.93;;;;;;;4.71;100.00;94155.00;5134131;27;20474;-54
2024/01/16 00:46:15;;;;;;;7.57;2.03;;;;;;;4.76;100.00;94156.84;5133704;27;20435;-53
2024/01/16 00:48:44;;;;;;;2.30;2.20;;;;;;;4.68;100.00;94142.41;5133863;27;20495;-53
2024/01/16 00:51:12;;;;;;;3.73;2.30;;;;;;;4.49;100.00;94112.50;5133667;27;20442;-53
2024/01/16 00:53:42;;;;;;;4.33;3.97;;;;;;;4.69;100.00;94146.63;5133297;27;20509;-53
2024/01/16 00:56:12;;;;;;;14.70;3.37;;;;;;;4.34;100.00;94138.69;5107099;27;20431;-53
2024/01/16 00:58:41;;;;;;;6.17;3.43;;;;;;;4.53;100.00;94152.88;5133678;27;20438;-53
2024/01/16 01:01:10;;;;;;;3.80;3.50;;;;;;;4.83;100.00;94158.16;5133913;27;20961;-53
2024/01/16 01:03:40;;;;;;;2.10;2.00;;;;;;;4.60;100.00;94079.19;5133824;27;20484;-54
2024/01/16 01:06:08;;;;;;;1.37;1.27;;;;;;;5.01;100.00;94134.03;5133616;27;20438;-53
2024/01/16 01:08:37;;;;;;;3.40;3.20;;;;;;;5.10;100.00;94123.81;5133656;27;20499;-53
2024/01/16 01:11:06;;;;;;;3.87;3.03;;;;;;;5.24;100.00;94131.94;5134294;27;20438;-53
2024/01/16 01:13:35;;;;;;;2.70;2.50;;;;;;;5.35;100.00;94125.59;5134081;27;20621;-53
2024/01/16 01:16:03;;;;;;;10.40;3.13;;;;;;;5.05;100.00;94134.31;5133318;27;20439;-53
2024/01/16 01:18:32;;;;;;;13.90;4.40;;;;;;;4.54;100.00;94138.72;5132926;27;20513;-53
2024/01/16 01:21:02;;;;;;;4.33;3.07;;;;;;;4.50;100.00;94143.69;5133316;27;20874;-53
2024/01/16 01:23:32;;;;;;;8.13;3.70;;;;;;;4.77;100.00;94153.19;5133226;27;20473;-53
2024/01/16 01:26:01;;;;;;;6.50;3.60;;;;;;;4.37;100.00;94135.56;5133592;27;20445;-53
2024/01/16 01:28:30;;;;;;;8.33;3.77;;;;;;;4.51;100.00;94155.00;5133068;27;20435;-53
2024/01/16 01:30:58;;;;;;;3.30;3.10;;;;;;;4.45;100.00;94148.16;5132797;27;20442;-54
2024/01/16 01:33:27;;;;;;;6.10;5.37;;;;;;;4.36;100.00;94147.09;5133312;27;20439;-53
2024/01/16 01:35:56;;;;;;;3.53;3.07;;;;;;;4.48;100.00;94145.00;5133666;27;21011;-53
2024/01/16 01:38:26;;;;;;;6.87;3.90;;;;;;;4.33;100.00;94113.50;5133709;27;20476;-54
2024/01/16 01:40:55;;;;;;;4.20;3.90;;;;;;;3.70;100.00;94064.84;5133083;27;20521;-54
2024/01/16 01:43:25;;;;;;;3.13;2.93;;;;;;;4.27;100.00;94141.56;5133539;27;20477;-54
2024/01/16 01:46:11;;;;;;;4.10;3.90;;;;;;;4.23;100.00;94116.09;5132377;27;20510;-54
2024/01/16 01:48:41;;;;;;;3.23;2.93;;;;;;;4.61;100.00;94113.03;5133231;27;20522;-54
2024/01/16 01:51:11;;;;;;;1.80;1.73;;;;;;;4.69;100.00;94109.88;5132557;27;20434;-54
2024/01/16 01:53:43;;;;;;;5.13;2.00;;;;;;;4.58;100.00;94071.56;5133050;27;20470;-54
2024/01/16 01:56:15;;;;;;;2.70;2.60;;;;;;;5.01;100.00;94092.03;5106572;27;20442;-55
2024/01/16 01:58:46;;;;;;;2.93;2.10;;;;;;;4.63;100.00;94097.78;5132417;27;20483;-55
2024/01/16 02:01:17;;;;;;;3.13;2.70;;;;;;;4.69;100.00;94109.09;5132937;27;20919;-54
2024/01/16 02:03:48;;;;;;;2.50;2.23;;;;;;;4.10;100.00;94019.63;5132384;27;20465;-53
2024/01/16 02:06:17;;;;;;;3.33;3.23;;;;;;;4.45;100.00;94066.84;5132729;27;20435;-53
2024/01/16 02:08:47;;;;;;;1.80;1.30;;;;;;;4.71;100.00;94110.41;5132020;27;20911;-53
2024/01/16 02:11:16;;;;;;;5.57;4.90;;;;;;;4.72;100.00;94109.38;5132529;27;20430;-53
2024/01/16 02:13:45;;;;;;;3.00;2.80;;;;;;;4.69;100.00;94101.22;5131535;27;20491;-54
2024/01/16 02:16:21;;;;;;;3.60;3.40;;;;;;;4.62;100.00;94096.25;5132052;27;20430;-54
2024/01/16 02:18:50;;;;;;;3.37;3.20;;;;;;;4.44;100.00;94073.13;5131566;27;20430;-54
2024/01/16 02:21:21;;;;;;;3.70;2.93;;;;;;;4.60;100.00;94113.28;5132245;27;20506;-54
2024/01/16 02:23:52;;;;;;;2.70;2.27;;;;;;;4.63;100.00;94099.66;5132758;27;20485;-55
2024/01/16 02:26:21;;;;;;;3.87;3.67;;;;;;;4.12;100.00;94046.34;5132315;27;20869;-53
2024/01/16 02:28:51;;;;;;;4.93;3.77;;;;;;;4.73;100.00;94095.19;5132117;27;20434;-53
2024/01/16 02:31:19;;;;;;;3.20;2.60;;;;;;;4.79;100.00;94086.25;5118822;27;20889;-54
2024/01/16 02:33:48;;;;;;;8.13;2.20;;;;;;;4.88;100.00;94107.53;5132248;27;20435;-54
2024/01/16 02:36:17;;;;;;;8.50;2.77;;;;;;;4.84;100.00;94115.13;5132495;28;20811;-54
2024/01/16 02:38:45;;;;;;;7.10;3.10;;;;;;;4.88;100.00;94112.78;5131943;27;20430;-54
2024/01/16 02:41:17;;;;;;;4.37;3.97;;;;;;;4.83;100.00;94116.19;5132349;28;20491;-54
2024/01/16 02:43:46;;;;;;;6.43;2.63;;;;;;;4.83;100.00;94124.06;5132589;27;20826;-54
2024/01/16 02:46:14;;;;;;;4.00;3.57;;;;;;;4.65;100.00;94129.84;5131579;27;20438;-55
2024/01/16 02:48:43;;;;;;;9.13;4.20;;;;;;;4.56;100.00;94126.13;5132064;27;20434;-55
2024/01/16 02:51:12;;;;;;;3.67;3.57;;;;;;;4.29;100.00;94104.59;5131693;28;20480;-55
2024/01/16 02:53:41;;;;;;;4.07;3.77;;;;;;;4.42;100.00;94111.97;5131796;27;20470;-54
2024/01/16 02:56:10;;;;;;;1.70;1.23;;;;;;;4.55;100.00;94119.34;5132178;28;20434;-54
2024/01/16 02:58:40;;;;;;;2.57;2.10;;;;;;;4.19;100.00;94067.84;5131762;28;20501;-54
2024/01/16 03:01:09;;;;;;;1.67;1.57;;;;;;;4.62;100.00;94111.19;5132233;28;20624;-54
2024/01/16 03:03:37;;;;;;;5.70;1.30;;;;;;;4.71;100.00;94118.28;5131820;28;20552;-55
2024/01/16 03:06:06;;;;;;;2.13;1.90;;;;;;;4.76;100.00;94136.66;5131775;28;20456;-55
2024/01/16 03:08:35;;;;;;;3.53;3.27;;;;;;;4.50;100.00;94122.72;5132019;28;20807;-55
2024/01/16 03:11:03;;;;;;;8.07;3.97;;;;;;;4.63;100.00;94110.91;5131837;28;20473;-55
2024/01/16 03:13:32;;;;;;;2.90;2.33;;;;;;;4.89;100.00;94127.47;5131665;28;20481;-54
2024/01/16 03:16:07;;;;;;;3.73;3.37;;;;;;;4.94;100.00;94133.50;5131857;27;20434;-54
2024/01/16 03:18:35;;;;;;;4.03;3.73;;;;;;;5.00;100.00;94129.84;5131493;27;20439;-53
2024/01/16 03:21:04;;;;;;;1.90;1.80;;;;;;;4.98;100.00;94142.44;5131806;27;20445;-54
2024/01/16 03:23:33;;;;;;;3.17;1.80;;;;;;;3.74;100.00;93933.06;5131173;27;20462;-53
2024/01/16 03:26:03;;;;;;;8.30;4.73;;;;;;;4.94;100.00;94098.59;5131732;28;20435;-54
2024/01/16 03:28:32;;;;;;;3.10;1.83;;;;;;;5.18;100.00;94140.84;5131894;28;20454;-54
2024/01/16 03:31:02;;;;;;;3.67;2.00;;;;;;;5.24;100.00;94139.81;5131590;27;20438;-53
2024/01/16 03:33:31;;;;;;;3.00;2.63;;;;;;;5.37;100.00;94144.50;5105216;28;20434;-53
2024/01/16 03:35:59;;;;;;;1.90;1.80;;;;;;;5.27;100.00;94147.16;5131781;28;20506;-54
2024/01/16 03:38:28;;;;;;;5.40;2.27;;;;;;;5.11;100.00;94136.66;5131651;27;20499;-54
2024/01/16 03:40:57;;;;;;;2.50;2.30;;;;;;;5.31;100.00;94156.88;5132715;27;20875;-54
2024/01/16 03:43:26;;;;;;;3.80;1.90;;;;;;;5.20;100.00;94165.81;5135300;27;20815;-54
2024/01/16 03:45:54;;;;;;;8.43;2.60;;;;;;;4.95;100.00;94163.19;5135321;27;20446;-54
2024/01/16 03:48:24;;;;;;;6.73;2.30;;;;;;;4.56;100.00;94135.84;5135434;27;20435;-54
2024/01/16 03:50:54;;;;;;;7.20;2.80;;;;;;;4.90;100.00;94158.72;5135397;27;20434;-54
2024/01/16 03:53:23;;;;;;;4.70;2.17;;;;;;;4.80;100.00;94169.22;5135323;27;20473;-54
2024/01/16 03:55:52;;;;;;;2.70;2.60;;;;;;;5.13;100.00;94162.66;5134821;27;20433;-54
2024/01/16 03:58:21;;;;;;;4.37;2.13;;;;;;;4.99;100.00;94149.25;5135452;27;20470;-55
2024/01/16 04:00:53;;;;;;;3.17;2.97;;;;;;;4.81;100.00;94154.22;5134470;27;20883;-54
2024/01/16 04:03:22;;;;;;;2.63;2.53;;;;;;;4.86;100.00;94168.16;5134876;27;20439;-54
2024/01/16 04:05:52;;;;;;;2.73;2.53;;;;;;;4.81;100.00;94165.53;5128196;27;20479;-54
2024/01/16 04:08:21;;;;;;;3.07;2.87;;;;;;;4.88;100.00;94166.06;5128401;27;20494;-54
2024/01/16 04:10:49;;;;;;;5.70;2.13;;;;;;;4.90;100.00;94166.59;5135021;27;20430;-54
2024/01/16 04:13:18;;;;;;;5.83;3.97;;;;;;;4.93;100.00;94187.06;5134826;27;20442;-55
2024/01/16 04:15:46;;;;;;;5.10;2.70;;;;;;;4.82;100.00;94193.38;5134822;27;20431;-54
2024/01/16 04:18:15;;;;;;;4.90;3.17;;;;;;;4.50;100.00;94172.56;5134465;27;20434;-54
2024/01/16 04:20:44;;;;;;;3.50;3.30;;;;;;;4.76;100.00;94189.16;5134814;27;20438;-54
2024/01/16 04:23:14;;;;;;;6.67;2.43;;;;;;;4.84;100.00;94186.00;5134434;27;20526;-54
2024/01/16 04:25:42;;;;;;;4.10;3.80;;;;;;;4.69;100.00;94190.44;5134446;27;20476;-54
2024/01/16 04:28:11;;;;;;;2.57;2.47;;;;;;;4.63;100.00;94197.50;5133974;27;20439;-54
2024/01/16 04:30:40;;;;;;;3.77;3.47;;;;;;;4.79;100.00;94201.75;5134339;27;20434;-54
2024/01/16 04:33:08;;;;;;;5.30;3.33;;;;;;;4.85;100.00;94198.09;5134198;27;21026;-54
2024/01/16 04:35:37;;;;;;;2.97;2.77;;;;;;;4.98;100.00;94200.19;5134238;27;20453;-54
2024/01/16 04:38:06;;;;;;;8.70;3.90;;;;;;;5.02;100.00;94198.63;5134451;27;20431;-55
2024/01/16 04:40:36;;;;;;;4.20;2.40;;;;;;;4.95;100.00;94184.19;5134034;27;20509;-54
2024/01/16 04:43:05;;;;;;;8.43;3.43;;;;;;;5.11;100.00;94212.81;5134140;27;20427;-54
2024/01/16 04:45:33;;;;;;;2.93;2.73;;;;;;;5.16;100.00;94214.66;5134086;27;20474;-54
2024/01/16 04:48:02;;;;;;;3.70;3.40;;;;;;;4.94;100.00;94193.09;5106820;27;20431;-55
2024/01/16 04:50:32;;;;;;;3.37;3.17;;;;;;;4.84;100.00;94170.25;5133906;27;20431;-55
2024/01/16 04:53:01;;;;;;;5.80;4.03;;;;;;;5.19;100.00;94227.25;5132893;27;20474;-55
2024/01/16 04:55:30;;;;;;;2.47;2.37;;;;;;;5.21;100.00;94227.00;5133984;27;20489;-54
2024/01/16 04:58:00;;;;;;;3.70;3.50;;;;;;;4.40;100.00;94106.19;5134426;27;20503;-56
2024/01/16 05:00:28;;;;;;;7.13;4.10;;;;;;;5.25;100.00;94247.25;5134125;27;20975;-54
2024/01/16 05:02:57;;;;;;;3.90;2.63;;;;;;;5.17;100.00;94252.22;5134446;27;20465;-55
2024/01/16 05:05:26;;;;;;;2.03;1.93;;;;;;;5.14;100.00;94256.94;5133688;27;20462;-55
2024/01/16 05:07:57;;;;;;;4.37;3.13;;;;;;;5.10;100.00;94265.59;5133714;27;20430;-55
2024/01/16 05:10:26;;;;;;;2.83;2.60;;;;;;;4.89;100.00;94212.25;5133725;27;20477;-54
2024/01/16 05:12:55;;;;;;;2.87;2.77;;;;;;;5.01;100.00;94246.94;5133743;27;20438;-55
2024/01/16 05:15:25;;;;;;;6.10;3.17;;;;;;;5.06;100.00;94240.91;5132935;27;20830;-54
2024/01/16 05:17:54;;;;;;;5.03;3.93;;;;;;;5.08;100.00;94252.72;5133907;27;20854;-55
2024/01/16 05:20:23;;;;;;;3.43;3.23;;;;;;;5.14;100.00;94264.03;5133376;27;20446;-54
2024/01/16 05:22:52;;;;;;;7.13;3.17;;;;;;;5.01;100.00;94244.31;5133296;27;20438;-56
2024/01/16 05:25:21;;;;;;;3.47;2.03;;;;;;;4.95;100.00;94205.19;5133515;27;20477;-55
2024/01/16 05:27:50;;;;;;;4.23;2.50;;;;;;;5.20;100.00;94262.19;5132269;27;20442;-55
2024/01/16 05:30:19;;;;;;;3.07;2.87;;;;;;;5.27;100.00;94258.25;5132616;27;20448;-55
2024/01/16 05:32:49;;;;;;;5.33;2.90;;;;;;;5.07;100.00;94214.41;5132422;27;20435;-56
2024/01/16 05:35:18;;;;;;;11.23;2.87;;;;;;;5.36;100.00;94251.44;5133038;27;20441;-54
2024/01/16 05:37:46;;;;;;;5.60;4.03;;;;;;;5.06;100.00;94212.00;5132844;27;20977;-56
2024/01/16 05:40:15;;;;;;;6.83;3.50;;;;;;;5.20;100.00;94218.34;5132838;27;20478;-55
2024/01/16 05:42:43;;;;;;;3.63;3.27;;;;;;;5.55;100.00;94255.13;5132239;27;20438;-54
2024/01/16 05:45:13;;;;;;;4.33;3.97;;;;;;;5.26;100.00;94267.22;5133063;27;20858;-54
2024/01/16 05:47:42;;;;;;;10.60;5.60;;;;;;;5.20;100.00;94273.50;5133013;27;20439;-55
2024/01/16 05:50:12;;;;;;;1.67;1.57;;;;;;;5.35;100.00;94270.09;5133139;27;20466;-55
2024/01/16 05:52:41;;;;;;;2.30;2.20;;;;;;;5.46;100.00;94272.47;5132050;27;20477;-55
2024/01/16 05:55:12;;;;;;;2.73;2.60;;;;;;;5.59;100.00;94284.31;5132819;27;20446;-55
2024/01/16 05:57:43;;;;;;;1.53;1.37;;;;;;;5.32;100.00;94260.09;5132825;27;20940;-56
2024/01/16 06:00:13;;;;;;;3.37;3.23;;;;;;;5.35;100.00;94296.34;5132116;27;20435;-55
2024/01/16 06:02:41;;;;;;;5.73;3.50;;;;;;;5.48;100.00;94290.59;5133165;27;20442;-55
2024/01/16 06:05:12;;;;;;;2.70;2.50;;;;;;;4.85;100.00;94234.06;5132461;27;20462;-56
2024/01/16 06:07:41;;;;;;;5.53;5.13;;;;;;;5.31;100.00;94308.44;5133221;27;20513;-56
2024/01/16 06:10:12;;;;;;;3.90;3.40;;;;;;;5.51;100.00;94306.63;5132679;27;20437;-56
2024/01/16 06:12:41;;;;;;;5.70;4.37;;;;;;;4.54;100.00;94201.69;5132896;27;20446;-56
2024/01/16 06:15:11;;;;;;;3.10;1.83;;;;;;;4.97;100.00;94266.91;5131926;27;20433;-55
2024/01/16 06:17:40;;;;;;;2.33;2.13;;;;;;;5.40;100.00;94327.91;5131975;27;20435;-55
2024/01/16 06:20:10;;;;;;;4.83;4.43;;;;;;;5.52;100.00;94323.16;5132022;27;20430;-55
2024/01/16 06:22:40;;;;;;;4.23;4.00;;;;;;;5.30;100.00;94294.53;5132294;27;20473;-55
2024/01/16 06:25:09;;;;;;;7.63;6.00;;;;;;;5.54;100.00;94342.13;5132437;27;20465;-55
2024/01/16 06:27:38;;;;;;;5.40;4.90;;;;;;;5.14;100.00;94280.56;5132422;27;20438;-55
2024/01/16 06:30:08;;;;;;;6.60;5.20;;;;;;;5.38;100.00;94345.75;5132069;27;20437;-55
2024/01/16 06:32:37;;;;;;;5.90;4.67;;;;;;;5.35;100.00;94354.16;5132370;27;20525;-55
2024/01/16 06:35:07;;;;;;;3.97;3.73;;;;;;;5.38;100.00;94364.94;5132373;27;20502;-54
2024/01/16 06:37:37;;;;;;;4.63;4.20;;;;;;;5.21;100.00;94360.97;5127915;27;20451;-55
2024/01/16 06:40:09;;;;;;;5.40;4.37;;;;;;;5.49;100.00;94368.38;5131785;27;20899;-55
2024/01/16 06:42:37;;;;;;;10.40;7.30;;;;;;;5.59;100.00;94374.44;5131754;28;20456;-55
2024/01/16 06:45:07;;;;;;;4.00;3.60;;;;;;;5.27;100.00;94317.88;5132616;27;20442;-54
2024/01/16 06:47:36;;;;;;;6.13;4.57;;;;;;;5.63;100.00;94377.34;5132130;28;20441;-55
2024/01/16 06:50:05;;;;;;;5.33;4.90;;;;;;;5.74;100.00;94407.84;5131979;28;20438;-55
2024/01/16 06:52:34;;;;;;;11.23;7.00;;;;;;;5.92;100.00;94409.22;5132003;27;20474;-55
2024/01/16 06:55:03;;;;;;;6.43;4.77;;;;;;;6.34;100.00;94405.28;5131454;27;20452;-55
2024/01/16 06:57:33;;;;;;;4.97;4.77;;;;;;;6.87;100.00;94408.31;5125460;27;20428;-55
2024/01/16 07:00:02;;;;;;;10.83;5.00;;;;;;;7.25;100.00;94410.31;5128856;28;20438;-55
2024/01/16 07:02:30;;;;;;;7.83;7.40;;;;;;;7.31;100.00;94347.81;5132103;28;20435;-55
2024/01/16 07:04:59;;;;;;;7.03;5.80;;;;;;;8.48;92.00;94407.41;5131679;28;20949;-55
2024/01/16 07:07:28;;;;;;;8.70;6.23;;;;;;;8.83;87.33;94408.91;5131607;28;20557;-54
2024/01/16 07:09:57;;;;;;;8.50;5.70;;;;;;;9.04;89.83;94401.56;5126229;28;20497;-54
2024/01/16 07:12:25;;;;;;;6.60;6.07;;;;;;;9.42;90.81;94405.88;5127220;28;20821;-55
2024/01/16 07:14:55;;;;;;;8.10;7.30;;;;;;;9.94;87.23;94394.34;5131801;27;21026;-55
2024/01/16 07:17:24;;;;;;;20.97;8.50;;;;;;;9.64;85.64;94398.16;5135098;27;20438;-54
2024/01/16 07:19:53;;;;;;;16.33;7.37;;;;;;;9.62;87.08;94400.31;5136179;27;20466;-55
2024/01/16 07:22:21;;;;;;;7.50;5.03;;;;;;;9.71;83.08;94411.84;5135676;27;20462;-55
2024/01/16 07:24:50;;;;;;;5.77;5.27;;;;;;;9.72;82.21;94431.94;5135126;27;20480;-55
2024/01/16 07:27:18;;;;;;;11.00;4.87;;;;;;;9.41;84.61;94425.47;5135700;27;20527;-55
2024/01/16 07:29:47;;;;;;;12.47;7.00;;;;;;;9.29;84.56;94447.00;5135774;27;20950;-54
2024/01/16 07:32:17;;;;;;;8.73;7.23;;;;;;;8.89;85.59;94461.44;5135239;27;20434;-54
2024/01/16 07:34:46;;;;;;;8.10;7.47;;;;;;;8.00;87.22;94416.19;5135500;27;20481;-55
2024/01/16 07:37:15;;;;;;;9.43;7.60;;;;;;;7.55;88.40;94465.53;5134957;27;20477;-55
2024/01/16 07:39:44;;;;;;;9.00;4.23;;;;;;;7.24;88.26;94471.97;5130557;27;20454;-55
2024/01/16 07:42:11;;;;;;;10.93;7.30;;;;;;;6.71;90.21;94469.97;5127241;27;20446;-55
2024/01/16 07:44:40;;;;;;;3.30;3.17;;;;;;;8.02;87.90;94482.69;5135294;27;20797;-55
2024/01/16 07:47:09;;;;;;;6.27;3.40;;;;;;;8.05;82.77;94472.38;5135174;27;20522;-54
2024/01/16 07:49:39;;;;;;;9.60;6.83;;;;;;;8.33;82.62;94473.53;5135562;27;20438;-55
2024/01/16 07:52:08;;;;;;;8.53;5.10;;;;;;;8.01;79.88;94471.34;5134047;27;20555;-55
2024/01/16 07:54:37;;;;;;;7.33;4.70;;;;;;;8.42;79.42;94490.38;5134820;27;20513;-55
2024/01/16 07:57:06;;;;;;;6.03;3.03;;;;;;;7.72;80.19;94477.56;5135103;27;20495;-54
2024/01/16 07:59:34;;;;;;;7.30;5.50;;;;;;;7.92;81.28;94493.31;5135369;27;20442;-55
2024/01/16 08:02:05;;;;;;;19.23;7.23;;;;;;;8.62;78.36;94484.94;5135168;27;20457;-55
2024/01/16 08:04:33;;;;;;;5.70;4.77;;;;;;;8.49;77.55;94484.78;5125694;27;20431;-56
2024/01/16 08:07:04;;;;;;;5.27;4.87;;;;;;;9.52;74.32;94500.97;5130307;27;21040;-55
2024/01/16 08:09:32;;;;;;;6.47;3.47;;;;;;;9.11;73.52;94489.25;5135382;27;20434;-54
2024/01/16 08:12:02;;;;;;;14.77;4.63;;;;;;;9.42;72.60;94509.00;5135051;27;20448;-54
2024/01/16 08:14:31;;;;;;;6.70;4.03;;;;;;;9.55;72.92;94501.19;5135069;27;20835;-54
2024/01/16 08:16:59;;;;;;;13.03;3.17;;;;;;;10.27;72.13;94490.53;5135447;27;20438;-55
2024/01/16 08:19:28;;;;;;;6.17;4.57;;;;;;;10.65;70.74;94461.03;5135063;27;20926;-56
2024/01/16 08:21:57;;;;;;;5.70;3.80;;;;;;;11.51;71.00;94488.66;5134355;27;20466;-56
2024/01/16 08:24:27;;;;;;;12.50;6.70;;;;;;;11.96;67.57;94487.81;5134729;27;20434;-56
2024/01/16 08:26:57;;;;;;;14.93;6.33;;;;;;;12.68;67.74;94496.56;5134255;27;20474;-55
2024/01/16 08:29:26;;;;;;;9.03;5.40;;;;;;;13.17;64.09;94460.28;5133775;27;20450;-55
2024/01/16 08:31:54;;;;;;;7.60;6.80;;;;;;;13.99;62.84;94495.81;5134868;27;20502;-54
2024/01/16 08:34:23;;;;;;;11.47;6.80;;;;;;;14.14;61.35;94494.59;5134227;27;20454;-55
2024/01/16 08:36:56;;;;;;;9.07;7.70;;;;;;;14.42;62.67;94484.50;5134187;27;20442;-56
2024/01/16 08:39:27;;;;;;;7.47;6.97;;;;;;;14.10;63.72;94451.03;5133866;27;20441;-55
2024/01/16 08:41:57;;;;;;;12.00;6.97;;;;;;;15.02;63.17;94505.81;5118452;27;20440;-56
2024/01/16 08:44:26;;;;;;;10.63;7.70;;;;;;;15.72;61.36;94502.66;5131154;27;20796;-55
2024/01/16 08:46:54;;;;;;;7.03;6.30;;;;;;;16.32;57.36;94499.66;5134317;27;20561;-56
2024/01/16 08:49:23;;;;;;;12.70;6.97;;;;;;;15.79;56.25;94517.06;5134471;27;20427;-57
2024/01/16 08:51:52;;;;;;;14.13;8.43;;;;;;;15.68;54.79;94521.22;5134411;27;20442;-57
2024/01/16 08:54:22;;;;;;;19.13;7.90;;;;;;;15.11;55.39;94528.72;5133122;27;20549;-57
2024/01/16 08:56:52;;;;;;;32.80;5.03;;;;;;;15.47;54.92;94535.56;5134250;27;20488;-59
2024/01/16 08:59:21;;;;;;;5.57;5.10;;;;;;;15.58;53.98;94526.13;5133509;27;20435;-59
2024/01/16 09:01:51;;;;;;;9.13;6.00;;;;;;;16.00;52.58;94514.47;5133510;27;20797;-61
2024/01/16 09:04:19;;;;;;;5.20;4.73;;;;;;;16.45;52.74;94525.38;5133561;27;20522;-60
2024/01/16 09:06:48;;;;;;;4.70;3.80;;;;;;;17.63;49.47;94530.06;5132389;27;20491;-61
2024/01/16 09:09:17;;;;;;;5.53;4.63;;;;;;;17.81;48.83;94530.66;5133617;27;20521;-60
2024/01/16 09:11:46;;;;;;;10.33;4.20;;;;;;;18.64;48.13;94531.03;5134127;27;20510;-60
2024/01/16 09:14:16;;;;;;;3.70;3.37;;;;;;;17.92;48.30;94531.00;5133546;27;20949;-59
2024/01/16 09:16:45;;;;;;;4.53;4.33;;;;;;;17.68;49.34;94521.06;5132954;27;20438;-59
2024/01/16 09:19:13;;;;;;;2.80;2.70;;;;;;;17.88;49.67;94544.31;5133866;27;20515;-59
2024/01/16 09:21:42;;;;;;;4.63;4.33;;;;;;;17.95;50.70;94555.25;5133135;27;20439;-58
2024/01/16 09:24:12;;;;;;;6.77;6.07;;;;;;;17.85;48.33;94546.88;5134006;27;20461;-58
2024/01/16 09:26:41;;;;;;;8.80;5.77;;;;;;;18.31;46.80;94530.34;5133214;27;20935;-57
2024/01/16 09:29:10;;;;;;;3.77;3.57;;;;;;;18.24;48.89;94500.66;5133576;27;20441;-57
2024/01/16 09:31:40;;;;;;;11.23;5.07;;;;;;;18.78;47.43;94544.06;5132583;27;20446;-57
2024/01/16 09:34:09;;;;;;;5.93;5.53;;;;;;;18.82;48.62;94536.91;5133067;27;20434;-57
2024/01/16 09:36:38;;;;;;;5.60;5.17;;;;;;;19.37;46.64;94546.94;5132925;27;20554;-57
2024/01/16 09:39:08;;;;;;;7.67;5.47;;;;;;;20.15;44.38;94545.13;5132262;27;20462;-57
2024/01/16 09:41:37;;;;;;;3.30;3.20;;;;;;;20.58;43.92;94536.16;5133241;27;20483;-56
2024/01/16 09:44:08;;;;;;;3.27;3.07;;;;;;;20.01;44.42;94464.06;5133111;27;20485;-57
2024/01/16 09:46:41;;;;;;;4.47;4.20;;;;;;;20.99;44.35;94540.13;5133347;27;20438;-57
2024/01/16 09:49:11;;;;;;;1.80;1.70;;;;;;;22.03;41.77;94539.09;5132537;27;20423;-56
2024/01/16 09:51:40;;;;;;;6.03;5.70;;;;;;;21.08;42.68;94462.59;5132783;27;20465;-57
2024/01/16 09:54:09;;;;;;;4.63;4.33;;;;;;;20.73;43.34;94532.66;5132193;27;21073;-57
2024/01/16 09:56:43;;;;;;;2.87;2.77;;;;;;;20.73;44.04;94543.41;5132822;27;20825;-57
2024/01/16 09:59:16;;;;;;;6.63;3.70;;;;;;;21.04;44.23;94539.06;5131814;27;20430;-56
2024/01/16 10:01:46;;;;;;;5.40;4.90;;;;;;;21.11;45.32;94493.44;5132307;27;20860;-56
2024/01/16 10:04:15;;;;;;;3.03;2.93;;;;;;;21.91;42.45;94544.63;5132219;27;20435;-57
2024/01/16 10:06:47;;;;;;;4.13;3.67;;;;;;;22.49;42.92;94543.28;5131805;27;20438;-56
2024/01/16 10:09:17;;;;;;;3.00;1.80;;;;;;;22.97;40.60;94554.44;5131830;27;20529;-56
2024/01/16 10:11:46;;;;;;;2.20;1.77;;;;;;;23.63;39.60;94543.69;5131421;27;20533;-56
2024/01/16 10:14:17;;;;;;;5.30;2.00;;;;;;;23.74;40.44;94525.66;5131581;27;20526;-56
2024/01/16 10:17:02;;;;;;;1.43;0.80;;;;;;;24.18;38.13;94527.63;5131700;27;20444;-56
2024/01/16 10:19:31;;;;;;;1.43;1.33;;;;;;;23.43;38.63;94533.44;5132519;27;20511;-56
2024/01/16 10:22:21;;;;;;;0.70;0.60;;;;;;;23.62;38.87;94520.50;5132806;27;20966;-56
2024/01/16 10:25:05;;;;;;;1.37;0.70;;;;;;;23.75;39.03;94480.44;5132220;27;20431;-56
2024/01/16 10:27:34;;;;;;;5.53;4.30;;;;;;;21.53;41.44;94530.06;5132587;27;20462;-56
2024/01/16 10:30:04;;;;;;;2.97;2.77;;;;;;;21.80;41.81;94532.88;5126243;27;20803;-56
2024/01/16 10:32:36;;;;;;;2.20;2.10;;;;;;;23.20;41.19;94536.19;5125410;27;20438;-55
2024/01/16 10:35:08;;;;;;;2.33;2.23;;;;;;;22.88;40.39;94524.97;5106200;27;20438;-55
2024/01/16 10:37:44;;;;;;;1.57;1.47;;;;;;;23.03;40.39;94523.25;5131699;27;20556;-55
2024/01/16 10:40:18;;;;;;;1.70;1.50;;;;;;;22.66;40.94;94517.72;5132256;27;20483;-51
2024/01/16 10:42:59;;;;;;;2.70;2.50;;;;;;;21.63;41.97;94522.56;5120673;27;20438;-51
2024/01/16 10:45:28;;;;;;;2.30;1.80;;;;;;;21.17;41.72;94522.44;5132054;27;20465;-51
2024/01/16 10:48:04;;;;;;;3.27;1.93;;;;;;;21.90;40.15;94522.31;5132089;27;20440;-53
2024/01/16 10:50:34;;;;;;;1.77;1.67;;;;;;;21.84;38.96;94526.41;5132177;27;20523;-52
2024/01/16 10:53:05;;;;;;;1.27;1.00;;;;;;;21.88;39.52;94526.50;5136554;27;20457;-52
2024/01/16 10:55:45;;;;;;;0.93;0.93;;;;;;;21.62;40.48;94532.56;5136153;27;21009;-52
2024/01/16 10:58:14;;;;;;;0.60;0.60;;;;;;;21.68;39.57;94527.66;5136456;27;20469;-52
2024/01/16 11:00:46;;;;;;;2.67;0.90;;;;;;;21.76;39.36;94524.69;5136608;27;20427;-52
2024/01/16 11:03:24;;;;;;;0.87;0.50;;;;;;;22.71;37.15;94526.31;5136173;27;20442;-51
2024/01/16 11:05:54;;;;;;;0.57;0.57;;;;;;;22.92;36.21;94527.75;5136513;27;20521;-51
2024/01/16 11:08:29;;;;;;;0.40;0.30;;;;;;;23.33;35.88;94515.88;5135729;27;20529;-52
2024/01/16 11:10:58;;;;;;;0.50;0.40;;;;;;;22.34;36.18;94528.00;5136131;27;20446;-52
2024/01/16 11:13:27;;;;;;;0.40;0.30;;;;;;;22.26;37.38;94512.88;5135903;27;20462;-52
2024/01/16 11:15:59;;;;;;;1.00;1.00;;;;;;;22.32;36.38;94530.31;5135742;27;20456;-52
2024/01/16 11:18:32;;;;;;;0.70;0.63;;;;;;;22.33;36.73;94506.78;5135386;27;20473;-52
2024/01/16 11:21:02;;;;;;;1.03;0.90;;;;;;;21.74;36.95;94547.78;5135904;27;20589;-52
2024/01/16 11:23:38;;;;;;;0.47;0.40;;;;;;;22.41;37.62;94552.44;5135618;27;20445;-52
2024/01/16 11:26:36;;;;;;;0.40;0.30;;;;;;;22.36;36.20;94550.06;5136005;27;20439;-53
2024/01/16 11:29:35;;;;;;;0.50;0.40;;;;;;;21.57;36.79;94554.41;5088927;27;20510;-52
2024/01/16 11:32:05;;;;;;;0.50;0.30;;;;;;;20.26;37.59;94494.28;5136233;27;20788;-52
2024/01/16 11:34:58;;;;;;;0.50;0.40;;;;;;;19.89;38.06;94563.69;5135316;27;20450;-52
2024/01/16 11:37:29;;;;;;;0.60;0.40;;;;;;;21.06;37.39;94567.25;5135620;27;20550;-51
2024/01/16 11:40:22;;;;;;;0.40;0.30;;;;;;;20.27;37.76;94566.59;5135703;27;20496;-52
2024/01/16 11:42:53;;;;;;;0.80;0.53;;;;;;;20.10;37.88;94539.22;5134793;27;21121;-53
2024/01/16 11:45:50;;;;;;;0.40;0.30;;;;;;;21.25;37.04;94559.16;5135608;27;20442;-52
2024/01/16 11:48:22;;;;;;;0.43;0.40;;;;;;;21.64;35.69;94537.56;5113926;27;20521;-53